CheckWX is a tool to help pilots better visualize weather data.  It is not intended as a substitute for an official pre-flight weather briefing.

16:59:19 UTC

LLIB TAF
Ben Ya'akov Airport
Rosh Pina, Israel
TAF LLIB 261126Z 2612/2712 24010KT 9999 SCT045 BECMG 2616/2618 VRB04KT SCT025 PROB40 2700/2706 5000 BR SCT015 BKN020 BECMG 2706/2708 18008KT 8000 BKN025 TEMPO 2708/2712 5000 RA BR SCT015 BKN020 TX17/2612Z TN09/2704Z

Mar-26@
12:00 UTC

Mar-26 @ 12:00 UTC

Mar-26@
16:00 UTC

Mar-26 @ 16:00 UTC

TAF LLIB 261126Z 2612/2712 24010KT 9999 SCT045

Expired

Wind
  • 240° at 10 KTS
Cloud Levels
  • Scattered at 4,500' AGL

Mar-26@
16:00 UTC

Mar-26 @ 16:00 UTC

Mar-27@
06:00 UTC

Mar-27 @ 06:00 UTC

BECMG 2616/2618 VRB04KT SCT025

Becoming

Becoming Conditions expected by Tue, Mar 26, 2019 @ 18:00 UTC

Wind
  • Variable at 4 KTS
Cloud Levels
  • Scattered at 2,500' AGL

Mar-27@
00:00 UTC

Mar-27 @ 00:00 UTC

Mar-27@
06:00 UTC

Mar-27 @ 06:00 UTC

PROB40 2700/2706 5000 BR SCT015 BKN020

Probable - 40% Likelihood

Probable - 40% Likelihood during this time.

Conditions
Mist
Cloud Levels
  • Scattered at 1,500' AGL
  • Broken at 2,000' AGL

Mar-27@
06:00 UTC

Mar-27 @ 06:00 UTC

Mar-27@
12:00 UTC

Mar-27 @ 12:00 UTC

BECMG 2706/2708 18008KT 8000 BKN025

Becoming

Becoming Conditions expected by Wed, Mar 27, 2019 @ 08:00 UTC

Wind
  • 180° at 8 KTS
Cloud Levels
  • Broken at 2,500' AGL

Mar-27@
08:00 UTC

Mar-27 @ 08:00 UTC

Mar-27@
12:00 UTC

Mar-27 @ 12:00 UTC

TEMPO 2708/2712 5000 RA BR SCT015 BKN020 TX17/2612Z TN09/2704Z

Temporary

Temporary Changes expected for less than half the time period

Conditions
Rain, Mist
Cloud Levels
  • Scattered at 1,500' AGL
  • Broken at 2,000' AGL